Time;durP1;ratioP1;P1;durP2;ratioP2;P2;SDS_P1;SDS_P2;PMS_P1;PMS_P2;Temp;Humidity;BMP_temperature;BMP_pressure;BME280_temperature;BME280_humidity;BME280_pressure;Samples;Min_cycle;Max_cycle;Signal;HPM_P1;HPM_P2
2023/08/09 00:02:02;;;;;;;0.40;0.40;;;13.30;99.90;;;;;;5073213;28;20499;-75
2023/08/09 00:04:28;;;;;;;0.40;0.40;;;13.40;99.90;;;;;;5073596;28;20029;-73
2023/08/09 00:06:54;;;;;;;0.50;0.50;;;13.40;99.90;;;;;;5073194;28;20062;-75
2023/08/09 00:09:21;;;;;;;0.63;0.63;;;13.40;99.90;;;;;;5073343;28;20469;-74
2023/08/09 00:11:47;;;;;;;0.40;0.40;;;13.40;99.90;;;;;;5073096;28;20044;-75
2023/08/09 00:14:12;;;;;;;0.40;0.40;;;13.50;99.90;;;;;;5072987;28;20124;-74
2023/08/09 00:16:38;;;;;;;0.47;0.47;;;13.50;99.90;;;;;;5072952;28;20053;-76
2023/08/09 00:19:05;;;;;;;0.40;0.40;;;13.50;99.90;;;;;;5073080;28;20036;-74
2023/08/09 00:21:31;;;;;;;0.70;0.70;;;13.60;99.90;;;;;;5073026;28;20044;-74
2023/08/09 00:23:58;;;;;;;0.60;0.60;;;13.60;99.90;;;;;;5073210;28;20067;-74
2023/08/09 00:26:25;;;;;;;;;;;13.60;99.90;;;;;;5073404;28;20091;-74
2023/08/09 00:28:51;;;;;;;0.45;0.45;;;13.60;99.90;;;;;;5073148;28;19927;-75
2023/08/09 00:31:17;;;;;;;0.40;0.40;;;13.60;99.90;;;;;;5073037;28;20384;-73
2023/08/09 00:33:43;;;;;;;0.40;0.40;;;13.60;99.90;;;;;;5072972;28;20043;-74
2023/08/09 00:36:09;;;;;;;0.50;0.50;;;13.60;99.90;;;;;;5072866;28;20080;-72
2023/08/09 00:38:36;;;;;;;0.40;0.40;;;13.60;99.90;;;;;;5072840;28;20467;-73
2023/08/09 00:41:02;;;;;;;0.40;0.40;;;13.60;99.90;;;;;;5072849;28;20143;-75
2023/08/09 00:43:27;;;;;;;0.60;0.60;;;13.60;99.90;;;;;;5072532;28;20084;-74
2023/08/09 00:45:53;;;;;;;0.40;0.40;;;13.60;99.90;;;;;;5072860;28;20079;-75
2023/08/09 00:48:19;;;;;;;0.53;0.53;;;13.60;99.90;;;;;;5072752;28;20071;-75
2023/08/09 00:50:45;;;;;;;0.40;0.40;;;13.60;99.90;;;;;;5072858;28;20043;-76
2023/08/09 00:53:11;;;;;;;0.50;0.50;;;13.60;99.90;;;;;;5072838;28;20036;-75
2023/08/09 00:55:38;;;;;;;0.60;0.60;;;13.60;99.90;;;;;;5075242;28;20037;-74
2023/08/09 00:58:04;;;;;;;0.32;0.32;;;13.60;99.90;;;;;;5076147;28;20484;-74
2023/08/09 01:00:29;;;;;;;0.50;0.50;;;13.60;99.90;;;;;;5075122;28;20068;-74
2023/08/09 01:02:55;;;;;;;0.60;0.60;;;13.70;99.90;;;;;;5076919;28;20422;-74
2023/08/09 01:05:26;;;;;;;0.40;0.40;;;13.60;99.90;;;;;;5076450;28;20043;-74
2023/08/09 01:07:58;;;;;;;0.70;0.70;;;13.60;99.90;;;;;;5076165;28;20127;-75
2023/08/09 01:10:38;;;;;;;0.60;0.60;;;13.50;99.90;;;;;;5076088;28;20048;-74
2023/08/09 01:13:06;;;;;;;0.50;0.50;;;13.50;99.90;;;;;;5076031;28;20523;-74
2023/08/09 01:15:33;;;;;;;0.63;0.40;;;13.50;99.90;;;;;;5076000;28;20041;-73
2023/08/09 01:18:00;;;;;;;0.40;0.40;;;13.50;99.90;;;;;;5075402;28;20052;-75
2023/08/09 01:20:26;;;;;;;0.63;0.63;;;13.50;99.90;;;;;;5075903;28;20036;-74
2023/08/09 01:23:13;;;;;;;0.57;0.57;;;13.50;99.90;;;;;;5075864;28;20052;-74
2023/08/09 01:25:39;;;;;;;0.40;0.40;;;13.60;99.90;;;;;;5076218;28;20147;-74
2023/08/09 01:28:05;;;;;;;0.60;0.60;;;13.50;99.90;;;;;;5075570;28;20055;-73
2023/08/09 01:30:31;;;;;;;0.65;0.65;;;13.40;99.90;;;;;;5075646;28;20102;-75
2023/08/09 01:32:57;;;;;;;0.57;0.57;;;13.50;99.90;;;;;;5075649;28;20080;-74
2023/08/09 01:35:25;;;;;;;0.75;0.57;;;13.40;99.90;;;;;;5075640;28;20376;-74
2023/08/09 01:38:19;;;;;;;0.50;0.50;;;13.40;99.90;;;;;;5075930;28;20507;-76
2023/08/09 01:40:45;;;;;;;0.30;0.30;;;13.40;99.90;;;;;;5075824;28;20082;-74
2023/08/09 01:43:11;;;;;;;0.50;0.50;;;13.40;99.90;;;;;;5075518;28;20439;-75
2023/08/09 01:45:37;;;;;;;0.40;0.40;;;13.40;99.90;;;;;;5075441;28;20037;-74
2023/08/09 01:48:03;;;;;;;0.50;0.50;;;13.40;99.90;;;;;;5075234;28;20040;-74
2023/08/09 01:50:29;;;;;;;0.40;0.40;;;13.40;99.90;;;;;;5075292;28;20503;-75
2023/08/09 01:52:55;;;;;;;0.90;0.50;;;13.40;99.90;;;;;;5075087;28;20279;-74
2023/08/09 01:55:22;;;;;;;0.93;0.93;;;13.30;99.90;;;;;;5075160;28;20044;-74
2023/08/09 01:57:48;;;;;;;0.40;0.40;;;13.30;99.90;;;;;;5075132;28;20044;-75
2023/08/09 02:00:17;;;;;;;0.40;0.40;;;13.30;99.90;;;;;;5074972;28;20387;-75
2023/08/09 02:02:43;;;;;;;0.40;0.40;;;13.30;99.90;;;;;;5075001;28;20128;-74
2023/08/09 02:05:10;;;;;;;0.40;0.40;;;13.20;99.90;;;;;;5074528;28;20119;-74
2023/08/09 02:07:36;;;;;;;0.40;0.40;;;13.20;99.90;;;;;;5075323;28;20443;-75
2023/08/09 02:10:02;;;;;;;0.60;0.60;;;13.20;99.90;;;;;;5075281;28;20080;-73
2023/08/09 02:12:27;;;;;;;0.50;0.50;;;13.10;99.90;;;;;;5074888;28;20109;-75
2023/08/09 02:14:53;;;;;;;0.50;0.50;;;13.10;99.90;;;;;;5074473;28;20047;-74
2023/08/09 02:17:18;;;;;;;0.50;0.50;;;13.10;99.90;;;;;;5074390;28;20055;-73
2023/08/09 02:19:44;;;;;;;0.60;0.60;;;13.10;99.90;;;;;;5074371;28;20068;-73
2023/08/09 02:22:10;;;;;;;0.70;0.70;;;13.10;99.90;;;;;;5074469;28;20045;-75
2023/08/09 02:24:36;;;;;;;0.70;0.50;;;13.10;99.90;;;;;;5074656;28;20055;-72
2023/08/09 02:27:01;;;;;;;0.40;0.40;;;13.00;99.90;;;;;;5074574;28;20040;-76
2023/08/09 02:29:27;;;;;;;0.40;0.40;;;13.10;99.90;;;;;;5074532;28;20036;-74
2023/08/09 02:31:53;;;;;;;0.60;0.60;;;13.10;99.90;;;;;;5074404;28;20040;-75
2023/08/09 02:34:19;;;;;;;0.50;0.50;;;13.00;99.90;;;;;;5074434;28;20486;-73
2023/08/09 02:36:46;;;;;;;0.40;0.40;;;13.10;99.90;;;;;;5074319;28;20128;-74
2023/08/09 02:39:12;;;;;;;0.40;0.40;;;13.10;99.90;;;;;;5074203;28;20085;-75
2023/08/09 02:41:41;;;;;;;0.73;0.60;;;13.10;99.90;;;;;;5074304;28;20048;-73
2023/08/09 02:44:07;;;;;;;1.33;1.25;;;13.00;99.90;;;;;;5074411;28;20032;-75
2023/08/09 02:46:33;;;;;;;0.30;0.30;;;13.00;99.90;;;;;;5073954;28;20102;-74
2023/08/09 02:48:59;;;;;;;0.60;0.60;;;13.10;99.90;;;;;;5074145;28;20128;-74
2023/08/09 02:51:24;;;;;;;0.77;0.77;;;13.10;99.90;;;;;;5074497;28;20441;-73
2023/08/09 02:53:59;;;;;;;0.60;0.60;;;13.10;99.90;;;;;;5074123;28;20097;-75
2023/08/09 02:56:25;;;;;;;0.90;0.85;;;13.00;99.90;;;;;;5074152;28;20032;-75
2023/08/09 02:58:51;;;;;;;0.70;0.70;;;13.00;99.90;;;;;;5073846;28;20525;-75
2023/08/09 03:01:17;;;;;;;0.75;0.75;;;13.00;99.90;;;;;;5073955;28;20044;-75
2023/08/09 03:03:42;;;;;;;0.50;0.50;;;13.00;99.90;;;;;;5073891;28;20102;-73
2023/08/09 03:06:08;;;;;;;0.70;0.70;;;13.00;99.90;;;;;;5073966;28;20125;-73
2023/08/09 03:08:33;;;;;;;0.50;0.50;;;13.00;99.90;;;;;;5074047;28;20058;-75
2023/08/09 03:10:59;;;;;;;0.50;0.50;;;13.00;99.90;;;;;;5073738;28;20141;-73
2023/08/09 03:13:25;;;;;;;0.50;0.50;;;12.90;99.90;;;;;;5073847;28;20047;-73
2023/08/09 03:15:50;;;;;;;0.50;0.50;;;13.00;99.90;;;;;;5073627;28;20063;-75
2023/08/09 03:18:16;;;;;;;0.60;0.60;;;13.00;99.90;;;;;;5073472;28;20071;-74
2023/08/09 03:20:41;;;;;;;0.50;0.50;;;13.00;99.90;;;;;;5074094;28;20452;-74
2023/08/09 03:23:09;;;;;;;0.60;0.60;;;13.00;99.90;;;;;;5073659;28;20043;-73
2023/08/09 03:25:36;;;;;;;0.40;0.40;;;12.90;99.90;;;;;;5073328;28;20040;-74
2023/08/09 03:28:02;;;;;;;;;;;13.00;99.90;;;;;;5074105;28;20071;-74
2023/08/09 03:30:28;;;;;;;0.52;0.52;;;13.00;99.90;;;;;;5073441;28;19922;-75
2023/08/09 03:32:53;;;;;;;0.60;0.60;;;13.10;99.90;;;;;;5073926;28;20123;-75
2023/08/09 03:35:19;;;;;;;0.73;0.68;;;13.10;99.90;;;;;;5073682;28;20097;-75
2023/08/09 03:37:45;;;;;;;0.52;0.52;;;13.10;99.90;;;;;;5073816;28;20381;-73
2023/08/09 03:40:12;;;;;;;0.70;0.70;;;13.10;99.90;;;;;;5073500;28;20046;-75
2023/08/09 03:42:39;;;;;;;;;;;13.10;99.90;;;;;;5072598;28;20279;-73
2023/08/09 03:45:06;;;;;;;0.40;0.40;;;13.10;99.90;;;;;;5073382;28;19916;-74
2023/08/09 03:47:32;;;;;;;0.68;0.68;;;13.10;99.90;;;;;;5053225;28;20051;-73
2023/08/09 03:49:58;;;;;;;0.50;0.50;;;13.10;99.90;;;;;;5053330;28;20045;-73
2023/08/09 03:52:23;;;;;;;0.40;0.40;;;13.10;99.90;;;;;;5053210;28;20473;-73
2023/08/09 03:54:52;;;;;;;0.95;0.93;;;13.00;99.90;;;;;;5053225;28;20055;-73
2023/08/09 03:57:18;;;;;;;0.40;0.40;;;13.00;99.90;;;;;;5053199;28;20163;-73
2023/08/09 03:59:45;;;;;;;0.70;0.60;;;13.00;99.90;;;;;;5053040;28;20048;-73
2023/08/09 04:02:11;;;;;;;0.50;0.50;;;13.00;99.90;;;;;;5053696;28;20354;-73
2023/08/09 04:04:37;;;;;;;0.50;0.50;;;13.00;99.90;;;;;;5053186;28;20037;-74
2023/08/09 04:07:03;;;;;;;0.70;0.70;;;13.00;99.90;;;;;;5052968;28;20267;-75
2023/08/09 04:09:28;;;;;;;0.50;0.50;;;12.90;99.90;;;;;;5053077;28;20036;-74
2023/08/09 04:11:54;;;;;;;0.60;0.60;;;12.90;99.90;;;;;;5052882;28;20099;-73
2023/08/09 04:14:19;;;;;;;0.40;0.40;;;12.90;99.90;;;;;;5053046;28;20037;-76
2023/08/09 04:16:45;;;;;;;0.85;0.80;;;12.90;99.90;;;;;;5052841;28;20110;-74
2023/08/09 04:19:11;;;;;;;0.60;0.60;;;12.90;99.90;;;;;;5053322;28;20090;-73
2023/08/09 04:21:37;;;;;;;0.60;0.60;;;12.90;99.90;;;;;;5053005;28;20477;-72
2023/08/09 04:24:04;;;;;;;0.73;0.73;;;12.90;99.90;;;;;;5053317;28;20037;-73
2023/08/09 04:26:30;;;;;;;0.70;0.70;;;12.90;99.90;;;;;;5053207;28;20376;-73
2023/08/09 04:28:55;;;;;;;0.43;0.43;;;12.90;99.90;;;;;;5054327;28;20045;-75
2023/08/09 04:31:21;;;;;;;0.85;0.65;;;12.90;99.90;;;;;;5057234;28;20041;-74
2023/08/09 04:33:49;;;;;;;0.40;0.40;;;12.90;99.90;;;;;;5056753;28;20067;-76
2023/08/09 04:36:18;;;;;;;0.50;0.50;;;12.90;99.90;;;;;;5056639;28;20036;-70
2023/08/09 04:38:45;;;;;;;0.50;0.50;;;12.90;99.90;;;;;;5056582;28;20092;-70
2023/08/09 04:41:10;;;;;;;0.40;0.40;;;12.80;99.90;;;;;;5056296;28;20040;-70
2023/08/09 04:43:39;;;;;;;0.50;0.50;;;13.10;99.90;;;;;;5056359;28;20033;-73
2023/08/09 04:46:05;;;;;;;0.68;0.68;;;12.90;99.90;;;;;;5056491;28;20484;-75
2023/08/09 04:48:31;;;;;;;0.50;0.50;;;12.90;99.90;;;;;;5056416;28;20124;-73
2023/08/09 04:50:56;;;;;;;0.40;0.40;;;12.90;99.90;;;;;;5056520;28;20083;-74
2023/08/09 04:53:22;;;;;;;0.73;0.73;;;12.80;99.90;;;;;;5056385;28;20037;-71
2023/08/09 04:55:48;;;;;;;0.50;0.50;;;12.90;99.90;;;;;;5056316;28;20049;-73
2023/08/09 04:58:13;;;;;;;0.40;0.40;;;12.80;99.90;;;;;;5056259;28;20461;-72
2023/08/09 05:00:39;;;;;;;0.60;0.60;;;12.80;99.90;;;;;;5055853;28;20084;-74
2023/08/09 05:03:05;;;;;;;0.40;0.40;;;12.80;99.90;;;;;;5056207;28;20044;-72
2023/08/09 05:05:31;;;;;;;0.40;0.40;;;12.80;99.90;;;;;;5056277;28;20039;-74
2023/08/09 05:07:57;;;;;;;0.40;0.40;;;12.80;99.90;;;;;;5054900;28;20063;-72
2023/08/09 05:10:22;;;;;;;0.47;0.47;;;12.80;99.90;;;;;;5056318;28;20412;-73
2023/08/09 05:12:48;;;;;;;0.40;0.40;;;12.80;99.90;;;;;;5055960;28;20049;-75
2023/08/09 05:15:13;;;;;;;0.40;0.40;;;12.80;99.90;;;;;;5055651;28;20047;-72
2023/08/09 05:17:39;;;;;;;0.40;0.40;;;12.90;99.90;;;;;;5056111;28;20049;-75
2023/08/09 05:20:06;;;;;;;0.55;0.55;;;12.90;99.90;;;;;;5055843;28;20037;-73
2023/08/09 05:22:31;;;;;;;0.45;0.45;;;12.90;99.90;;;;;;5056196;28;20039;-73
2023/08/09 05:24:57;;;;;;;0.47;0.47;;;12.90;99.90;;;;;;5055507;28;20041;-70
2023/08/09 05:27:23;;;;;;;0.50;0.50;;;13.10;99.90;;;;;;5055674;28;20523;-74
2023/08/09 05:29:48;;;;;;;0.50;0.50;;;13.00;99.90;;;;;;5055589;28;20533;-73
2023/08/09 05:32:14;;;;;;;0.50;0.50;;;13.10;99.90;;;;;;5055649;28;20037;-73
2023/08/09 05:34:40;;;;;;;0.50;0.50;;;13.10;99.90;;;;;;5055595;28;20068;-73
2023/08/09 05:37:05;;;;;;;0.50;0.50;;;13.20;99.90;;;;;;5056241;28;20087;-72
2023/08/09 05:39:31;;;;;;;0.40;0.40;;;13.20;99.90;;;;;;5055274;28;20037;-73
2023/08/09 05:41:57;;;;;;;0.57;0.57;;;13.20;99.90;;;;;;5054833;28;20048;-75
2023/08/09 05:44:23;;;;;;;0.47;0.47;;;13.20;99.90;;;;;;5055135;28;20479;-76
2023/08/09 05:46:48;;;;;;;0.50;0.50;;;13.10;99.90;;;;;;5055495;28;20079;-71
2023/08/09 05:49:14;;;;;;;0.60;0.60;;;13.30;99.90;;;;;;5055590;28;20041;-75
2023/08/09 05:51:40;;;;;;;0.40;0.40;;;13.40;99.90;;;;;;5055317;28;20092;-73
2023/08/09 05:54:06;;;;;;;0.40;0.40;;;13.40;99.90;;;;;;5055343;28;20500;-72
2023/08/09 05:56:31;;;;;;;0.50;0.50;;;13.50;99.90;;;;;;5055100;28;20120;-72
2023/08/09 05:58:57;;;;;;;0.40;0.40;;;13.60;99.90;;;;;;5055078;28;20131;-73
2023/08/09 06:01:23;;;;;;;0.40;0.40;;;13.70;99.90;;;;;;5054851;28;20037;-73
2023/08/09 06:03:49;;;;;;;0.50;0.50;;;13.70;99.90;;;;;;5055108;28;20053;-72
2023/08/09 06:06:15;;;;;;;0.60;0.60;;;13.80;99.90;;;;;;5055111;28;20047;-78
2023/08/09 06:08:41;;;;;;;0.40;0.40;;;13.70;99.90;;;;;;5055254;28;20037;-77
2023/08/09 06:11:06;;;;;;;0.40;0.40;;;13.80;99.90;;;;;;5054940;28;20045;-74
2023/08/09 06:13:32;;;;;;;0.50;0.50;;;13.90;99.90;;;;;;5054534;28;20496;-75
2023/08/09 06:15:58;;;;;;;0.50;0.50;;;14.00;99.90;;;;;;5054782;28;20048;-75
2023/08/09 06:18:24;;;;;;;0.40;0.40;;;13.90;99.90;;;;;;5055514;28;20226;-75
2023/08/09 06:20:51;;;;;;;0.43;0.43;;;14.10;99.90;;;;;;5054684;28;20385;-73
2023/08/09 06:23:17;;;;;;;0.50;0.50;;;14.20;99.90;;;;;;5054702;28;20400;-76
2023/08/09 06:25:42;;;;;;;0.50;0.50;;;14.20;99.90;;;;;;5054723;28;20040;-74
2023/08/09 06:28:08;;;;;;;0.50;0.50;;;14.30;99.90;;;;;;5054738;28;20037;-74
2023/08/09 06:30:34;;;;;;;0.50;0.50;;;14.30;99.90;;;;;;5055231;28;20126;-75
2023/08/09 06:32:59;;;;;;;0.50;0.50;;;14.40;99.90;;;;;;5054548;28;20465;-74
2023/08/09 06:35:25;;;;;;;0.40;0.40;;;14.50;99.90;;;;;;5054584;28;20036;-75
2023/08/09 06:37:52;;;;;;;0.50;0.50;;;14.70;99.90;;;;;;5054461;28;20530;-74
2023/08/09 06:40:18;;;;;;;0.63;0.63;;;14.70;99.90;;;;;;5054279;28;20376;-74
2023/08/09 06:42:44;;;;;;;0.50;0.40;;;14.80;99.90;;;;;;5054329;28;20048;-75
2023/08/09 06:45:11;;;;;;;0.50;0.50;;;14.90;99.90;;;;;;5054038;28;20535;-74
2023/08/09 06:47:37;;;;;;;0.60;0.60;;;15.00;99.90;;;;;;5054263;28;20075;-75
2023/08/09 06:50:06;;;;;;;0.50;0.50;;;15.00;99.90;;;;;;5054130;28;20073;-75
2023/08/09 06:52:33;;;;;;;0.63;0.60;;;15.10;99.90;;;;;;5054126;28;20123;-74
2023/08/09 06:55:00;;;;;;;0.63;0.47;;;15.20;99.90;;;;;;5054075;28;20080;-74
2023/08/09 06:57:26;;;;;;;0.60;0.60;;;15.30;99.90;;;;;;5052758;28;20041;-74
2023/08/09 06:59:52;;;;;;;0.95;0.70;;;15.40;99.90;;;;;;5053920;28;20041;-74
2023/08/09 07:02:19;;;;;;;0.40;0.40;;;15.50;99.90;;;;;;5054368;28;20041;-76
2023/08/09 07:04:44;;;;;;;;;;;15.60;99.90;;;;;;5054236;28;20071;-75
2023/08/09 07:07:10;;;;;;;0.50;0.50;;;15.60;99.90;;;;;;5053807;28;20345;-75
2023/08/09 07:09:35;;;;;;;0.50;0.50;;;15.70;99.90;;;;;;5053842;28;20041;-74
2023/08/09 07:12:01;;;;;;;0.75;0.50;;;15.70;99.90;;;;;;5053549;28;20045;-75
2023/08/09 07:14:27;;;;;;;0.50;0.50;;;15.80;99.90;;;;;;5054084;28;20036;-72
2023/08/09 07:16:52;;;;;;;0.50;0.50;;;16.00;99.90;;;;;;5053851;28;20049;-73
2023/08/09 07:19:18;;;;;;;0.67;0.67;;;16.00;99.90;;;;;;5053571;28;20127;-73
2023/08/09 07:21:44;;;;;;;0.73;0.70;;;16.00;99.90;;;;;;5053891;28;20072;-73
2023/08/09 07:24:11;;;;;;;0.60;0.60;;;16.10;99.90;;;;;;5053895;28;20395;-73
2023/08/09 07:26:36;;;;;;;0.50;0.50;;;16.10;99.90;;;;;;5053514;28;20049;-72
2023/08/09 07:29:03;;;;;;;0.97;0.53;;;16.20;99.90;;;;;;5053152;28;20588;-73
2023/08/09 07:31:28;;;;;;;0.40;0.40;;;16.30;99.90;;;;;;5053534;28;20111;-72
2023/08/09 07:33:54;;;;;;;0.50;0.50;;;16.30;99.90;;;;;;5051912;28;20120;-74
2023/08/09 07:36:20;;;;;;;0.50;0.50;;;16.40;99.90;;;;;;5052853;28;20036;-74
2023/08/09 07:38:45;;;;;;;0.67;0.67;;;16.60;99.90;;;;;;5053225;28;20040;-72
2023/08/09 07:41:11;;;;;;;0.70;0.70;;;16.60;99.90;;;;;;5053259;28;20044;-73
2023/08/09 07:43:37;;;;;;;0.40;0.40;;;16.70;99.90;;;;;;5053327;28;20355;-72
2023/08/09 07:46:05;;;;;;;3.40;0.70;;;16.80;99.90;;;;;;5053334;28;20063;-74
2023/08/09 07:48:32;;;;;;;0.30;0.30;;;16.90;99.90;;;;;;5053771;28;20036;-70
2023/08/09 07:50:58;;;;;;;0.80;0.77;;;16.90;99.90;;;;;;5053320;28;20033;-71
2023/08/09 07:53:23;;;;;;;0.43;0.43;;;17.00;99.90;;;;;;5053340;28;20036;-71
2023/08/09 07:55:49;;;;;;;0.77;0.40;;;17.10;99.90;;;;;;5053414;28;20376;-71
2023/08/09 07:58:15;;;;;;;0.40;0.40;;;17.20;99.90;;;;;;5052982;28;20056;-70
2023/08/09 08:00:40;;;;;;;0.40;0.40;;;17.30;99.90;;;;;;5053267;28;20037;-71
2023/08/09 08:03:06;;;;;;;0.40;0.30;;;17.30;99.90;;;;;;5053991;28;20095;-70
2023/08/09 08:05:32;;;;;;;0.40;0.40;;;17.40;99.90;;;;;;5057372;28;20480;-71
2023/08/09 08:07:57;;;;;;;0.53;0.50;;;17.50;99.90;;;;;;5057308;28;20468;-71
2023/08/09 08:10:23;;;;;;;0.97;0.87;;;17.60;99.90;;;;;;5056850;28;20049;-71
2023/08/09 08:12:50;;;;;;;0.30;0.30;;;17.70;99.90;;;;;;5057199;28;20087;-70
2023/08/09 08:15:18;;;;;;;0.40;0.40;;;17.70;99.90;;;;;;5057100;28;20041;-71
2023/08/09 08:17:46;;;;;;;0.30;0.30;;;17.80;99.90;;;;;;5056802;28;20092;-70
2023/08/09 08:20:15;;;;;;;0.50;0.50;;;17.80;99.90;;;;;;5056840;28;20041;-70
2023/08/09 08:22:49;;;;;;;0.40;0.40;;;17.80;99.90;;;;;;5056952;28;20080;-70
2023/08/09 08:25:16;;;;;;;0.60;0.60;;;17.80;99.90;;;;;;5056824;28;20120;-70
2023/08/09 08:27:45;;;;;;;0.50;0.40;;;18.00;99.90;;;;;;5057290;28;20051;-70
2023/08/09 08:30:15;;;;;;;0.30;0.30;;;18.00;99.90;;;;;;5057259;28;20037;-71
2023/08/09 08:32:43;;;;;;;0.30;0.30;;;18.00;99.90;;;;;;5056745;28;20047;-72
2023/08/09 08:35:13;;;;;;;0.40;0.40;;;18.20;99.90;;;;;;5056891;28;20135;-76
2023/08/09 08:37:40;;;;;;;0.22;0.22;;;18.30;99.90;;;;;;5056727;28;20140;-74
2023/08/09 08:40:17;;;;;;;0.40;0.40;;;18.30;99.90;;;;;;5056506;28;20120;-74
2023/08/09 08:42:44;;;;;;;0.40;0.40;;;18.30;99.90;;;;;;5056604;28;20083;-75
2023/08/09 08:45:11;;;;;;;0.40;0.40;;;18.40;99.90;;;;;;5056338;28;20155;-73
2023/08/09 08:47:41;;;;;;;0.30;0.30;;;18.50;99.90;;;;;;5056474;28;20473;-74
2023/08/09 08:50:08;;;;;;;0.30;0.30;;;18.60;99.90;;;;;;5056360;28;20037;-75
2023/08/09 08:52:38;;;;;;;0.30;0.30;;;18.70;99.90;;;;;;5056093;28;20470;-75
2023/08/09 08:55:11;;;;;;;0.30;0.30;;;18.60;99.90;;;;;;5056260;28;20090;-73
2023/08/09 08:57:39;;;;;;;0.30;0.30;;;18.80;99.90;;;;;;5056604;28;20037;-73
2023/08/09 09:00:16;;;;;;;0.30;0.30;;;19.00;99.90;;;;;;5056177;28;20037;-75
2023/08/09 09:02:46;;;;;;;0.30;0.30;;;19.00;99.90;;;;;;5056236;28;20045;-72
2023/08/09 09:05:19;;;;;;;0.30;0.30;;;19.10;99.90;;;;;;5056059;28;20051;-75
2023/08/09 09:07:49;;;;;;;0.43;0.32;;;19.10;99.90;;;;;;5056097;28;20044;-74
2023/08/09 09:10:15;;;;;;;0.30;0.30;;;19.20;99.90;;;;;;5056389;28;20090;-75
2023/08/09 09:12:41;;;;;;;0.50;0.47;;;19.30;99.90;;;;;;5056133;28;20119;-74
2023/08/09 09:15:09;;;;;;;0.30;0.30;;;19.30;99.90;;;;;;5054731;28;20045;-74
2023/08/09 09:17:53;;;;;;;0.40;0.40;;;19.40;99.90;;;;;;5055906;28;20123;-73
2023/08/09 09:20:27;;;;;;;0.40;0.40;;;19.40;99.90;;;;;;5056027;28;20055;-75
2023/08/09 09:22:53;;;;;;;0.20;0.20;;;19.40;99.90;;;;;;5055843;28;20048;-74
2023/08/09 09:25:22;;;;;;;0.20;0.20;;;19.40;99.90;;;;;;5055831;28;20118;-73
2023/08/09 09:27:52;;;;;;;0.22;0.22;;;19.60;99.90;;;;;;5055865;28;20037;-74
2023/08/09 09:30:21;;;;;;;0.20;0.20;;;19.60;99.90;;;;;;5055883;28;20501;-74
2023/08/09 09:32:51;;;;;;;0.20;0.20;;;19.70;99.90;;;;;;5055638;28;20045;-75
2023/08/09 09:35:27;;;;;;;0.30;0.30;;;19.70;99.90;;;;;;5056041;28;20099;-74
2023/08/09 09:37:55;;;;;;;0.25;0.25;;;19.80;99.90;;;;;;5055511;28;20091;-75
2023/08/09 09:40:35;;;;;;;0.30;0.30;;;19.80;99.90;;;;;;5055523;28;20044;-73
2023/08/09 09:43:02;;;;;;;0.30;0.30;;;19.90;99.90;;;;;;5055560;28;20037;-73
2023/08/09 09:45:29;;;;;;;0.20;0.20;;;20.00;99.90;;;;;;5055447;28;20531;-74
2023/08/09 09:47:57;;;;;;;0.30;0.30;;;20.00;99.90;;;;;;5055486;28;20048;-74
2023/08/09 09:50:25;;;;;;;0.30;0.30;;;20.20;99.90;;;;;;5055377;28;20445;-75
2023/08/09 09:52:52;;;;;;;0.28;0.28;;;20.30;99.90;;;;;;5055299;28;20080;-75
2023/08/09 09:55:25;;;;;;;0.20;0.20;;;20.40;99.90;;;;;;5054875;28;20040;-73
2023/08/09 09:57:52;;;;;;;0.20;0.20;;;20.50;99.90;;;;;;5055193;28;20049;-74
2023/08/09 10:00:22;;;;;;;0.40;0.40;;;20.60;99.90;;;;;;5055060;28;20103;-74
2023/08/09 10:02:52;;;;;;;0.28;0.28;;;20.60;99.90;;;;;;5055130;28;20461;-75
2023/08/09 10:05:26;;;;;;;0.30;0.30;;;20.60;99.90;;;;;;5055101;28;20037;-74
2023/08/09 10:07:53;;;;;;;0.30;0.30;;;20.50;99.90;;;;;;5055068;28;20045;-74
2023/08/09 10:10:19;;;;;;;0.22;0.22;;;20.50;99.90;;;;;;5055548;28;20049;-74
2023/08/09 10:12:49;;;;;;;0.20;0.20;;;20.60;99.90;;;;;;5054908;28;20056;-74
2023/08/09 10:15:18;;;;;;;0.20;0.20;;;20.60;99.90;;;;;;5054926;28;20353;-73
2023/08/09 10:17:49;;;;;;;0.30;0.30;;;20.70;99.90;;;;;;5055141;28;20131;-75
2023/08/09 10:20:17;;;;;;;0.30;0.30;;;20.60;99.90;;;;;;5054748;28;20044;-74
2023/08/09 10:22:46;;;;;;;0.30;0.30;;;20.50;99.90;;;;;;5054721;28;20092;-74
2023/08/09 10:25:12;;;;;;;0.30;0.30;;;20.30;99.90;;;;;;5054695;28;20401;-73
2023/08/09 10:27:53;;;;;;;0.35;0.35;;;20.10;99.90;;;;;;5054295;28;20041;-73
2023/08/09 10:30:26;;;;;;;0.30;0.30;;;19.80;99.90;;;;;;5054518;28;20396;-74
2023/08/09 10:32:57;;;;;;;0.22;0.22;;;19.80;99.90;;;;;;5054481;28;20048;-74
2023/08/09 10:35:49;;;;;;;0.20;0.20;;;19.90;99.90;;;;;;5054528;28;20445;-73
2023/08/09 10:38:18;;;;;;;0.43;0.30;;;20.20;99.90;;;;;;5053942;28;20067;-74
2023/08/09 10:40:49;;;;;;;0.30;0.30;;;20.30;99.90;;;;;;5054473;28;20059;-74
2023/08/09 10:43:20;;;;;;;0.30;0.30;;;20.30;99.90;;;;;;5054271;28;20047;-74
2023/08/09 10:45:48;;;;;;;0.40;0.40;;;20.30;99.90;;;;;;5054303;28;20431;-74
2023/08/09 10:48:19;;;;;;;0.28;0.28;;;20.30;99.90;;;;;;5054223;28;20037;-74
2023/08/09 10:50:45;;;;;;;0.20;0.20;;;20.10;99.90;;;;;;5054184;28;20072;-74
2023/08/09 10:53:10;;;;;;;0.30;0.30;;;20.00;99.90;;;;;;5054200;28;20079;-74
2023/08/09 10:55:36;;;;;;;0.30;0.30;;;19.90;99.90;;;;;;5054098;28;20044;-74
2023/08/09 10:58:03;;;;;;;0.30;0.30;;;19.90;99.90;;;;;;5053967;28;20086;-73
2023/08/09 11:00:38;;;;;;;0.20;0.20;;;19.90;99.90;;;;;;5054099;28;20142;-73
2023/08/09 11:03:04;;;;;;;0.30;0.30;;;20.00;99.90;;;;;;5054010;28;20044;-74
2023/08/09 11:05:30;;;;;;;0.65;0.50;;;20.20;99.90;;;;;;5054208;28;20044;-74
2023/08/09 11:07:58;;;;;;;0.20;0.20;;;20.30;99.90;;;;;;5053898;28;20132;-75
2023/08/09 11:10:38;;;;;;;0.20;0.20;;;20.50;99.90;;;;;;5053841;28;20488;-72
2023/08/09 11:13:15;;;;;;;0.30;0.30;;;20.80;99.90;;;;;;5053883;28;20380;-74
2023/08/09 11:15:46;;;;;;;0.28;0.25;;;21.10;99.90;;;;;;5053972;28;20087;-72
2023/08/09 11:18:12;;;;;;;0.85;0.30;;;21.20;99.90;;;;;;5053915;28;20397;-74
2023/08/09 11:20:39;;;;;;;0.40;0.40;;;21.20;99.90;;;;;;5053634;28;20469;-72
2023/08/09 11:23:05;;;;;;;0.20;0.20;;;21.20;99.90;;;;;;5053564;28;20045;-73
2023/08/09 11:25:33;;;;;;;0.20;0.20;;;21.30;99.90;;;;;;5053464;28;20036;-74
2023/08/09 11:28:05;;;;;;;0.30;0.30;;;21.50;99.90;;;;;;5053881;28;20067;-72
2023/08/09 11:30:32;;;;;;;0.40;0.40;;;21.60;99.90;;;;;;5053471;28;20416;-72
2023/08/09 11:33:04;;;;;;;0.30;0.30;;;21.60;99.90;;;;;;5052046;28;20086;-74
2023/08/09 11:35:44;;;;;;;0.20;0.20;;;21.70;99.90;;;;;;5053363;28;20040;-74
2023/08/09 11:38:13;;;;;;;0.22;0.22;;;21.70;99.90;;;;;;5052576;28;20044;-73
2023/08/09 11:40:44;;;;;;;0.20;0.20;;;21.80;99.90;;;;;;5053417;28;20076;-73
2023/08/09 11:43:16;;;;;;;0.20;0.20;;;22.00;99.90;;;;;;5053315;28;20037;-74
2023/08/09 11:45:48;;;;;;;0.40;0.40;;;22.30;99.90;;;;;;5053329;28;20041;-73
2023/08/09 11:48:32;;;;;;;0.20;0.20;;;22.40;99.90;;;;;;5053316;28;20052;-73
2023/08/09 11:51:01;;;;;;;0.30;0.30;;;22.30;99.90;;;;;;5053320;28;20041;-74
2023/08/09 11:53:27;;;;;;;0.20;0.20;;;22.10;99.90;;;;;;5053241;28;20044;-72
2023/08/09 11:56:02;;;;;;;0.20;0.20;;;21.90;99.90;;;;;;5053454;28;20037;-72
2023/08/09 11:58:28;;;;;;;0.20;0.20;;;21.80;99.90;;;;;;5053283;28;20071;-73
2023/08/09 12:00:53;;;;;;;0.30;0.30;;;21.70;99.90;;;;;;5053239;28;20048;-73
2023/08/09 12:03:20;;;;;;;0.30;0.30;;;21.60;99.90;;;;;;5053185;28;20116;-73
2023/08/09 12:05:46;;;;;;;0.20;0.20;;;21.50;99.90;;;;;;5053192;28;20040;-73
2023/08/09 12:08:12;;;;;;;0.20;0.20;;;21.40;99.90;;;;;;5053126;28;20086;-73
2023/08/09 12:10:41;;;;;;;0.20;0.20;;;21.40;99.90;;;;;;5053257;28;20051;-73
2023/08/09 12:13:06;;;;;;;0.30;0.30;;;21.50;99.90;;;;;;5053362;28;20045;-74
2023/08/09 12:15:34;;;;;;;0.20;0.20;;;21.60;99.90;;;;;;5053076;28;20531;-73
2023/08/09 12:18:00;;;;;;;0.20;0.20;;;21.80;99.90;;;;;;5053102;28;20045;-73
2023/08/09 12:20:25;;;;;;;0.20;0.20;;;22.00;99.90;;;;;;5053016;28;20114;-73
2023/08/09 12:22:51;;;;;;;0.20;0.20;;;22.00;99.90;;;;;;5052829;28;20045;-74
2023/08/09 12:25:17;;;;;;;0.37;0.37;;;22.10;99.90;;;;;;5052981;28;20530;-74
2023/08/09 12:27:43;;;;;;;0.22;0.22;;;22.10;99.90;;;;;;5052959;28;20041;-72
2023/08/09 12:30:11;;;;;;;0.20;0.20;;;21.90;99.90;;;;;;5052980;28;20041;-73
2023/08/09 12:32:38;;;;;;;0.20;0.20;;;21.80;99.90;;;;;;5052853;28;20082;-73
2023/08/09 12:35:05;;;;;;;0.30;0.30;;;21.60;99.90;;;;;;5052844;28;20040;-73
2023/08/09 12:37:30;;;;;;;0.43;0.30;;;21.60;99.90;;;;;;5052890;28;20488;-74
2023/08/09 12:39:56;;;;;;;0.30;0.30;;;21.50;99.90;;;;;;5052838;28;20088;-73
2023/08/09 12:42:22;;;;;;;0.30;0.30;;;21.30;99.90;;;;;;5052843;28;20349;-73
2023/08/09 12:44:47;;;;;;;0.30;0.30;;;21.20;99.90;;;;;;5053126;28;20037;-73
2023/08/09 12:47:13;;;;;;;0.30;0.30;;;21.20;99.90;;;;;;5052831;28;20047;-74
2023/08/09 12:49:39;;;;;;;0.20;0.20;;;21.30;99.90;;;;;;5053719;28;20048;-74